sensor_id;sensor_type;location;lat;lon;timestamp;P1;durP1;ratioP1;P2;durP2;ratioP2
9188;SDS011;34313;50.780;6.084;2023-03-03T00:00:26;41.90;;;22.63;;
9188;SDS011;34313;50.780;6.084;2023-03-03T00:02:52;42.37;;;21.70;;
9188;SDS011;34313;50.780;6.084;2023-03-03T00:05:17;39.53;;;22.43;;
9188;SDS011;34313;50.780;6.084;2023-03-03T00:07:43;43.50;;;23.47;;
9188;SDS011;34313;50.780;6.084;2023-03-03T00:10:09;54.47;;;23.60;;
9188;SDS011;34313;50.780;6.084;2023-03-03T00:12:35;60.43;;;26.10;;
9188;SDS011;34313;50.780;6.084;2023-03-03T00:15:17;44.10;;;23.87;;
9188;SDS011;34313;50.780;6.084;2023-03-03T00:17:45;53.43;;;25.67;;
9188;SDS011;34313;50.780;6.084;2023-03-03T00:23:02;44.13;;;23.47;;
9188;SDS011;34313;50.780;6.084;2023-03-03T00:25:52;46.63;;;25.30;;
9188;SDS011;34313;50.780;6.084;2023-03-03T00:31:20;55.70;;;25.23;;
9188;SDS011;34313;50.780;6.084;2023-03-03T00:34:13;50.80;;;25.60;;
9188;SDS011;34313;50.780;6.084;2023-03-03T00:36:48;52.50;;;26.27;;
9188;SDS011;34313;50.780;6.084;2023-03-03T00:39:35;48.70;;;25.37;;
9188;SDS011;34313;50.780;6.084;2023-03-03T00:42:15;47.30;;;25.40;;
9188;SDS011;34313;50.780;6.084;2023-03-03T00:44:45;44.80;;;24.87;;
9188;SDS011;34313;50.780;6.084;2023-03-03T00:50:33;53.47;;;26.13;;
9188;SDS011;34313;50.780;6.084;2023-03-03T00:52:58;50.37;;;25.70;;
9188;SDS011;34313;50.780;6.084;2023-03-03T00:55:29;48.53;;;24.17;;
9188;SDS011;34313;50.780;6.084;2023-03-03T00:57:55;48.30;;;24.17;;
9188;SDS011;34313;50.780;6.084;2023-03-03T01:00:20;45.70;;;24.27;;
9188;SDS011;34313;50.780;6.084;2023-03-03T01:02:45;53.73;;;24.87;;
9188;SDS011;34313;50.780;6.084;2023-03-03T01:05:13;46.27;;;25.77;;
9188;SDS011;34313;50.780;6.084;2023-03-03T01:07:39;59.37;;;28.00;;
9188;SDS011;34313;50.780;6.084;2023-03-03T01:10:05;57.03;;;28.13;;
9188;SDS011;34313;50.780;6.084;2023-03-03T01:12:31;60.80;;;29.27;;
9188;SDS011;34313;50.780;6.084;2023-03-03T01:14:56;66.83;;;31.50;;
9188;SDS011;34313;50.780;6.084;2023-03-03T01:17:22;61.83;;;29.57;;
9188;SDS011;34313;50.780;6.084;2023-03-03T01:19:47;59.60;;;29.47;;
9188;SDS011;34313;50.780;6.084;2023-03-03T01:22:13;58.40;;;29.87;;
9188;SDS011;34313;50.780;6.084;2023-03-03T01:24:38;59.70;;;29.60;;
9188;SDS011;34313;50.780;6.084;2023-03-03T01:27:03;59.50;;;28.87;;
9188;SDS011;34313;50.780;6.084;2023-03-03T01:29:29;60.70;;;30.33;;
9188;SDS011;34313;50.780;6.084;2023-03-03T01:31:54;58.67;;;30.60;;
9188;SDS011;34313;50.780;6.084;2023-03-03T01:34:19;66.03;;;32.30;;
9188;SDS011;34313;50.780;6.084;2023-03-03T01:36:45;64.33;;;30.93;;
9188;SDS011;34313;50.780;6.084;2023-03-03T01:39:11;67.17;;;31.97;;
9188;SDS011;34313;50.780;6.084;2023-03-03T01:41:36;65.00;;;30.43;;
9188;SDS011;34313;50.780;6.084;2023-03-03T01:44:02;65.20;;;29.27;;
9188;SDS011;34313;50.780;6.084;2023-03-03T01:46:32;68.50;;;33.43;;
9188;SDS011;34313;50.780;6.084;2023-03-03T01:49:26;72.63;;;34.67;;
9188;SDS011;34313;50.780;6.084;2023-03-03T01:51:56;86.20;;;36.00;;
9188;SDS011;34313;50.780;6.084;2023-03-03T01:54:44;79.63;;;36.07;;
9188;SDS011;34313;50.780;6.084;2023-03-03T01:57:15;76.40;;;36.77;;
9188;SDS011;34313;50.780;6.084;2023-03-03T01:59:48;90.37;;;37.20;;
9188;SDS011;34313;50.780;6.084;2023-03-03T02:02:16;94.83;;;39.27;;
9188;SDS011;34313;50.780;6.084;2023-03-03T02:04:42;95.80;;;40.17;;
9188;SDS011;34313;50.780;6.084;2023-03-03T02:07:09;100.37;;;41.03;;
9188;SDS011;34313;50.780;6.084;2023-03-03T02:09:38;78.53;;;36.93;;
9188;SDS011;34313;50.780;6.084;2023-03-03T02:12:31;85.23;;;38.40;;
9188;SDS011;34313;50.780;6.084;2023-03-03T02:15:10;94.90;;;39.07;;
9188;SDS011;34313;50.780;6.084;2023-03-03T02:17:48;93.33;;;40.07;;
9188;SDS011;34313;50.780;6.084;2023-03-03T02:20:26;93.73;;;39.90;;
9188;SDS011;34313;50.780;6.084;2023-03-03T02:25:40;92.63;;;39.80;;
9188;SDS011;34313;50.780;6.084;2023-03-03T02:28:13;97.90;;;41.37;;
9188;SDS011;34313;50.780;6.084;2023-03-03T02:30:39;103.13;;;41.50;;
9188;SDS011;34313;50.780;6.084;2023-03-03T02:33:05;108.93;;;43.57;;
9188;SDS011;34313;50.780;6.084;2023-03-03T02:37:58;113.93;;;44.27;;
9188;SDS011;34313;50.780;6.084;2023-03-03T02:40:32;109.27;;;44.90;;
9188;SDS011;34313;50.780;6.084;2023-03-03T02:43:01;117.70;;;44.60;;
9188;SDS011;34313;50.780;6.084;2023-03-03T02:45:30;115.77;;;42.20;;
9188;SDS011;34313;50.780;6.084;2023-03-03T02:47:55;112.03;;;44.00;;
9188;SDS011;34313;50.780;6.084;2023-03-03T02:50:20;108.37;;;41.30;;
9188;SDS011;34313;50.780;6.084;2023-03-03T02:52:46;151.20;;;42.10;;
9188;SDS011;34313;50.780;6.084;2023-03-03T02:55:11;123.57;;;42.30;;
9188;SDS011;34313;50.780;6.084;2023-03-03T02:57:37;120.87;;;41.27;;
9188;SDS011;34313;50.780;6.084;2023-03-03T03:00:02;121.90;;;43.03;;
9188;SDS011;34313;50.780;6.084;2023-03-03T03:02:28;111.70;;;44.03;;
9188;SDS011;34313;50.780;6.084;2023-03-03T03:04:53;100.67;;;41.83;;
9188;SDS011;34313;50.780;6.084;2023-03-03T03:07:18;132.17;;;43.20;;
9188;SDS011;34313;50.780;6.084;2023-03-03T03:09:44;142.03;;;45.13;;
9188;SDS011;34313;50.780;6.084;2023-03-03T03:12:09;122.33;;;43.20;;
9188;SDS011;34313;50.780;6.084;2023-03-03T03:14:35;134.70;;;43.53;;
9188;SDS011;34313;50.780;6.084;2023-03-03T03:17:00;118.47;;;43.17;;
9188;SDS011;34313;50.780;6.084;2023-03-03T03:19:26;131.57;;;44.03;;
9188;SDS011;34313;50.780;6.084;2023-03-03T03:21:52;135.83;;;43.30;;
9188;SDS011;34313;50.780;6.084;2023-03-03T03:24:17;144.97;;;45.37;;
9188;SDS011;34313;50.780;6.084;2023-03-03T03:26:43;146.87;;;46.87;;
9188;SDS011;34313;50.780;6.084;2023-03-03T03:29:08;177.00;;;46.10;;
9188;SDS011;34313;50.780;6.084;2023-03-03T03:31:34;151.50;;;46.83;;
9188;SDS011;34313;50.780;6.084;2023-03-03T03:34:00;149.50;;;45.90;;
9188;SDS011;34313;50.780;6.084;2023-03-03T03:36:25;180.97;;;50.13;;
9188;SDS011;34313;50.780;6.084;2023-03-03T03:38:52;172.17;;;47.70;;
9188;SDS011;34313;50.780;6.084;2023-03-03T03:41:17;152.43;;;50.17;;
9188;SDS011;34313;50.780;6.084;2023-03-03T03:43:42;157.10;;;49.80;;
9188;SDS011;34313;50.780;6.084;2023-03-03T03:46:08;207.37;;;52.53;;
9188;SDS011;34313;50.780;6.084;2023-03-03T03:48:33;162.70;;;50.07;;
9188;SDS011;34313;50.780;6.084;2023-03-03T03:50:59;194.10;;;51.27;;
9188;SDS011;34313;50.780;6.084;2023-03-03T03:53:24;200.67;;;54.30;;
9188;SDS011;34313;50.780;6.084;2023-03-03T03:55:50;167.13;;;52.50;;
9188;SDS011;34313;50.780;6.084;2023-03-03T03:58:16;199.97;;;54.80;;
9188;SDS011;34313;50.780;6.084;2023-03-03T04:00:42;213.60;;;53.20;;
9188;SDS011;34313;50.780;6.084;2023-03-03T04:03:08;177.13;;;51.40;;
9188;SDS011;34313;50.780;6.084;2023-03-03T04:05:34;203.20;;;55.67;;
9188;SDS011;34313;50.780;6.084;2023-03-03T04:08:00;197.57;;;53.80;;
9188;SDS011;34313;50.780;6.084;2023-03-03T04:10:25;197.23;;;56.97;;
9188;SDS011;34313;50.780;6.084;2023-03-03T04:12:50;196.23;;;55.40;;
9188;SDS011;34313;50.780;6.084;2023-03-03T04:15:16;202.27;;;57.17;;
9188;SDS011;34313;50.780;6.084;2023-03-03T04:17:41;243.63;;;57.93;;
9188;SDS011;34313;50.780;6.084;2023-03-03T04:20:08;206.20;;;54.47;;
9188;SDS011;34313;50.780;6.084;2023-03-03T04:22:36;199.20;;;57.67;;
9188;SDS011;34313;50.780;6.084;2023-03-03T04:25:02;206.93;;;57.43;;
9188;SDS011;34313;50.780;6.084;2023-03-03T04:27:32;197.67;;;60.50;;
9188;SDS011;34313;50.780;6.084;2023-03-03T04:29:59;193.70;;;55.70;;
9188;SDS011;34313;50.780;6.084;2023-03-03T04:32:25;201.43;;;57.30;;
9188;SDS011;34313;50.780;6.084;2023-03-03T04:34:52;211.60;;;59.40;;
9188;SDS011;34313;50.780;6.084;2023-03-03T04:37:17;230.80;;;59.83;;
9188;SDS011;34313;50.780;6.084;2023-03-03T04:39:43;211.93;;;57.40;;
9188;SDS011;34313;50.780;6.084;2023-03-03T04:42:08;245.97;;;58.73;;
9188;SDS011;34313;50.780;6.084;2023-03-03T04:44:33;247.37;;;59.67;;
9188;SDS011;34313;50.780;6.084;2023-03-03T04:46:59;287.77;;;62.83;;
9188;SDS011;34313;50.780;6.084;2023-03-03T04:49:24;232.27;;;62.87;;
9188;SDS011;34313;50.780;6.084;2023-03-03T04:51:50;272.07;;;61.57;;
9188;SDS011;34313;50.780;6.084;2023-03-03T04:54:15;226.60;;;59.30;;
9188;SDS011;34313;50.780;6.084;2023-03-03T04:56:40;234.43;;;61.60;;
9188;SDS011;34313;50.780;6.084;2023-03-03T04:59:06;251.20;;;63.47;;
9188;SDS011;34313;50.780;6.084;2023-03-03T05:01:31;250.10;;;62.97;;
9188;SDS011;34313;50.780;6.084;2023-03-03T05:03:56;276.57;;;65.47;;
9188;SDS011;34313;50.780;6.084;2023-03-03T05:06:22;236.37;;;61.67;;
9188;SDS011;34313;50.780;6.084;2023-03-03T05:08:48;239.10;;;61.07;;
9188;SDS011;34313;50.780;6.084;2023-03-03T05:11:13;270.73;;;66.70;;
9188;SDS011;34313;50.780;6.084;2023-03-03T05:13:39;240.30;;;64.17;;
9188;SDS011;34313;50.780;6.084;2023-03-03T05:16:04;253.47;;;67.20;;
9188;SDS011;34313;50.780;6.084;2023-03-03T05:18:30;266.00;;;63.77;;
9188;SDS011;34313;50.780;6.084;2023-03-03T05:20:56;306.90;;;64.43;;
9188;SDS011;34313;50.780;6.084;2023-03-03T05:23:21;289.80;;;64.83;;
9188;SDS011;34313;50.780;6.084;2023-03-03T05:25:47;241.23;;;64.67;;
9188;SDS011;34313;50.780;6.084;2023-03-03T05:28:13;235.73;;;60.47;;
9188;SDS011;34313;50.780;6.084;2023-03-03T05:30:39;257.53;;;60.97;;
9188;SDS011;34313;50.780;6.084;2023-03-03T05:33:05;235.03;;;62.27;;
9188;SDS011;34313;50.780;6.084;2023-03-03T05:35:31;243.77;;;64.67;;
9188;SDS011;34313;50.780;6.084;2023-03-03T05:37:56;243.60;;;62.63;;
9188;SDS011;34313;50.780;6.084;2023-03-03T05:40:22;251.50;;;60.47;;
9188;SDS011;34313;50.780;6.084;2023-03-03T05:42:48;237.03;;;60.47;;
9188;SDS011;34313;50.780;6.084;2023-03-03T05:45:14;238.97;;;59.67;;
9188;SDS011;34313;50.780;6.084;2023-03-03T05:47:40;227.80;;;61.67;;
9188;SDS011;34313;50.780;6.084;2023-03-03T05:50:05;238.17;;;61.67;;
9188;SDS011;34313;50.780;6.084;2023-03-03T05:52:31;249.00;;;62.50;;
9188;SDS011;34313;50.780;6.084;2023-03-03T05:54:56;246.47;;;62.23;;
9188;SDS011;34313;50.780;6.084;2023-03-03T05:57:21;262.50;;;68.27;;
9188;SDS011;34313;50.780;6.084;2023-03-03T05:59:47;238.97;;;64.30;;
9188;SDS011;34313;50.780;6.084;2023-03-03T06:02:12;231.13;;;62.23;;
9188;SDS011;34313;50.780;6.084;2023-03-03T06:04:38;221.90;;;61.80;;
9188;SDS011;34313;50.780;6.084;2023-03-03T06:07:03;219.53;;;62.47;;
9188;SDS011;34313;50.780;6.084;2023-03-03T06:09:29;199.23;;;59.90;;
9188;SDS011;34313;50.780;6.084;2023-03-03T06:11:54;213.80;;;59.27;;
9188;SDS011;34313;50.780;6.084;2023-03-03T06:14:20;202.17;;;56.00;;
9188;SDS011;34313;50.780;6.084;2023-03-03T06:16:46;202.33;;;57.50;;
9188;SDS011;34313;50.780;6.084;2023-03-03T06:19:12;190.83;;;57.37;;
9188;SDS011;34313;50.780;6.084;2023-03-03T06:21:38;208.83;;;56.00;;
9188;SDS011;34313;50.780;6.084;2023-03-03T06:24:04;194.20;;;54.97;;
9188;SDS011;34313;50.780;6.084;2023-03-03T06:26:30;172.70;;;52.80;;
9188;SDS011;34313;50.780;6.084;2023-03-03T06:28:56;179.33;;;55.10;;
9188;SDS011;34313;50.780;6.084;2023-03-03T06:31:22;185.73;;;53.40;;
9188;SDS011;34313;50.780;6.084;2023-03-03T06:33:48;163.83;;;52.40;;
9188;SDS011;34313;50.780;6.084;2023-03-03T06:36:13;160.73;;;52.57;;
9188;SDS011;34313;50.780;6.084;2023-03-03T06:38:39;185.23;;;53.40;;
9188;SDS011;34313;50.780;6.084;2023-03-03T06:41:04;162.20;;;53.17;;
9188;SDS011;34313;50.780;6.084;2023-03-03T06:43:32;179.43;;;50.93;;
9188;SDS011;34313;50.780;6.084;2023-03-03T06:45:58;179.77;;;54.17;;
9188;SDS011;34313;50.780;6.084;2023-03-03T06:48:23;166.33;;;53.27;;
9188;SDS011;34313;50.780;6.084;2023-03-03T06:50:48;166.87;;;50.90;;
9188;SDS011;34313;50.780;6.084;2023-03-03T06:53:15;154.60;;;49.00;;
9188;SDS011;34313;50.780;6.084;2023-03-03T06:55:41;165.90;;;50.67;;
9188;SDS011;34313;50.780;6.084;2023-03-03T06:58:12;168.87;;;47.83;;
9188;SDS011;34313;50.780;6.084;2023-03-03T07:00:43;162.20;;;48.60;;
9188;SDS011;34313;50.780;6.084;2023-03-03T07:03:17;159.23;;;49.00;;
9188;SDS011;34313;50.780;6.084;2023-03-03T07:05:46;160.23;;;49.90;;
9188;SDS011;34313;50.780;6.084;2023-03-03T07:08:15;171.20;;;53.43;;
9188;SDS011;34313;50.780;6.084;2023-03-03T07:10:45;180.60;;;53.17;;
9188;SDS011;34313;50.780;6.084;2023-03-03T07:13:33;179.73;;;54.83;;
9188;SDS011;34313;50.780;6.084;2023-03-03T07:15:58;161.77;;;49.07;;
9188;SDS011;34313;50.780;6.084;2023-03-03T07:21:48;160.23;;;51.27;;
9188;SDS011;34313;50.780;6.084;2023-03-03T07:23:59;173.57;;;51.90;;
9188;SDS011;34313;50.780;6.084;2023-03-03T07:26:29;161.37;;;49.00;;
9188;SDS011;34313;50.780;6.084;2023-03-03T07:29:00;174.23;;;51.47;;
9188;SDS011;34313;50.780;6.084;2023-03-03T07:31:38;165.43;;;49.10;;
9188;SDS011;34313;50.780;6.084;2023-03-03T07:34:19;149.90;;;46.57;;
9188;SDS011;34313;50.780;6.084;2023-03-03T07:36:46;161.70;;;47.90;;
9188;SDS011;34313;50.780;6.084;2023-03-03T07:41:45;158.20;;;49.17;;
9188;SDS011;34313;50.780;6.084;2023-03-03T07:44:13;148.60;;;45.23;;
9188;SDS011;34313;50.780;6.084;2023-03-03T07:46:57;148.60;;;46.50;;
9188;SDS011;34313;50.780;6.084;2023-03-03T07:49:34;163.77;;;49.07;;
9188;SDS011;34313;50.780;6.084;2023-03-03T07:52:01;148.77;;;46.37;;
9188;SDS011;34313;50.780;6.084;2023-03-03T07:54:45;169.57;;;49.87;;
9188;SDS011;34313;50.780;6.084;2023-03-03T07:57:20;170.63;;;48.93;;
9188;SDS011;34313;50.780;6.084;2023-03-03T08:08:30;159.60;;;47.97;;
9188;SDS011;34313;50.780;6.084;2023-03-03T08:11:01;173.63;;;50.00;;
9188;SDS011;34313;50.780;6.084;2023-03-03T08:21:12;169.83;;;51.47;;
9188;SDS011;34313;50.780;6.084;2023-03-03T08:23:40;159.80;;;47.43;;
9188;SDS011;34313;50.780;6.084;2023-03-03T08:26:06;146.17;;;44.87;;
9188;SDS011;34313;50.780;6.084;2023-03-03T08:28:32;150.80;;;49.80;;
9188;SDS011;34313;50.780;6.084;2023-03-03T08:30:57;132.30;;;44.20;;
9188;SDS011;34313;50.780;6.084;2023-03-03T08:33:23;144.57;;;44.57;;
9188;SDS011;34313;50.780;6.084;2023-03-03T08:35:48;139.30;;;41.60;;
9188;SDS011;34313;50.780;6.084;2023-03-03T08:38:15;141.40;;;42.70;;
9188;SDS011;34313;50.780;6.084;2023-03-03T08:40:42;132.10;;;43.77;;
9188;SDS011;34313;50.780;6.084;2023-03-03T08:43:08;153.60;;;44.97;;
9188;SDS011;34313;50.780;6.084;2023-03-03T08:45:34;136.40;;;42.73;;
9188;SDS011;34313;50.780;6.084;2023-03-03T08:47:59;142.23;;;46.43;;
9188;SDS011;34313;50.780;6.084;2023-03-03T08:50:26;137.30;;;46.13;;
9188;SDS011;34313;50.780;6.084;2023-03-03T08:52:52;146.60;;;48.47;;
9188;SDS011;34313;50.780;6.084;2023-03-03T08:55:18;135.37;;;45.27;;
9188;SDS011;34313;50.780;6.084;2023-03-03T08:57:43;138.30;;;46.23;;
9188;SDS011;34313;50.780;6.084;2023-03-03T09:00:13;131.20;;;45.70;;
9188;SDS011;34313;50.780;6.084;2023-03-03T09:02:40;145.60;;;47.37;;
9188;SDS011;34313;50.780;6.084;2023-03-03T09:05:05;150.00;;;44.57;;
9188;SDS011;34313;50.780;6.084;2023-03-03T09:07:31;129.03;;;45.03;;
9188;SDS011;34313;50.780;6.084;2023-03-03T09:09:57;131.70;;;44.90;;
9188;SDS011;34313;50.780;6.084;2023-03-03T09:12:36;121.80;;;43.30;;
9188;SDS011;34313;50.780;6.084;2023-03-03T09:15:14;125.27;;;42.67;;
9188;SDS011;34313;50.780;6.084;2023-03-03T09:17:43;122.37;;;43.90;;
9188;SDS011;34313;50.780;6.084;2023-03-03T09:25:47;138.50;;;44.90;;
9188;SDS011;34313;50.780;6.084;2023-03-03T09:28:24;120.67;;;41.20;;
9188;SDS011;34313;50.780;6.084;2023-03-03T09:30:52;133.60;;;45.23;;
9188;SDS011;34313;50.780;6.084;2023-03-03T09:38:49;127.63;;;43.07;;
9188;SDS011;34313;50.780;6.084;2023-03-03T09:46:36;139.10;;;47.87;;
9188;SDS011;34313;50.780;6.084;2023-03-03T09:52:20;128.37;;;44.10;;
9188;SDS011;34313;50.780;6.084;2023-03-03T09:54:56;117.83;;;42.53;;
9188;SDS011;34313;50.780;6.084;2023-03-03T10:05:57;131.13;;;44.50;;
9188;SDS011;34313;50.780;6.084;2023-03-03T10:08:38;122.03;;;44.63;;
9188;SDS011;34313;50.780;6.084;2023-03-03T10:27:35;125.20;;;42.63;;
9188;SDS011;34313;50.780;6.084;2023-03-03T10:30:24;120.97;;;44.33;;
9188;SDS011;34313;50.780;6.084;2023-03-03T10:33:15;112.10;;;40.60;;
9188;SDS011;34313;50.780;6.084;2023-03-03T10:44:14;119.13;;;40.43;;
9188;SDS011;34313;50.780;6.084;2023-03-03T10:49:56;109.43;;;40.47;;
9188;SDS011;34313;50.780;6.084;2023-03-03T10:52:38;121.17;;;43.20;;
9188;SDS011;34313;50.780;6.084;2023-03-03T10:55:11;117.87;;;41.47;;
9188;SDS011;34313;50.780;6.084;2023-03-03T11:03:25;118.43;;;41.73;;
9188;SDS011;34313;50.780;6.084;2023-03-03T11:08:44;106.73;;;39.40;;
9188;SDS011;34313;50.780;6.084;2023-03-03T11:11:19;121.33;;;40.77;;
9188;SDS011;34313;50.780;6.084;2023-03-03T11:13:47;124.27;;;42.60;;
9188;SDS011;34313;50.780;6.084;2023-03-03T11:16:40;123.33;;;43.50;;
9188;SDS011;34313;50.780;6.084;2023-03-03T11:29:52;104.20;;;39.07;;
9188;SDS011;34313;50.780;6.084;2023-03-03T11:40:46;124.65;;;51.10;;
9188;SDS011;34313;50.780;6.084;2023-03-03T11:43:16;104.63;;;43.50;;
9188;SDS011;34313;50.780;6.084;2023-03-03T11:45:46;128.80;;;46.23;;
9188;SDS011;34313;50.780;6.084;2023-03-03T11:48:19;111.27;;;42.67;;
9188;SDS011;34313;50.780;6.084;2023-03-03T11:51:00;111.30;;;42.27;;
9188;SDS011;34313;50.780;6.084;2023-03-03T11:59:08;111.60;;;41.37;;
9188;SDS011;34313;50.780;6.084;2023-03-03T12:04:42;110.03;;;42.37;;
9188;SDS011;34313;50.780;6.084;2023-03-03T12:07:20;106.80;;;42.37;;
9188;SDS011;34313;50.780;6.084;2023-03-03T12:12:50;117.87;;;43.27;;
9188;SDS011;34313;50.780;6.084;2023-03-03T12:18:09;120.83;;;46.67;;
9188;SDS011;34313;50.780;6.084;2023-03-03T12:23:46;126.63;;;46.10;;
9188;SDS011;34313;50.780;6.084;2023-03-03T12:30:01;131.40;;;46.40;;
9188;SDS011;34313;50.780;6.084;2023-03-03T12:40:24;131.07;;;46.77;;
9188;SDS011;34313;50.780;6.084;2023-03-03T12:48:16;132.87;;;45.20;;
9188;SDS011;34313;50.780;6.084;2023-03-03T12:56:12;122.47;;;46.93;;
9188;SDS011;34313;50.780;6.084;2023-03-03T13:07:01;127.40;;;46.67;;
9188;SDS011;34313;50.780;6.084;2023-03-03T13:09:36;132.77;;;47.90;;
9188;SDS011;34313;50.780;6.084;2023-03-03T13:15:08;118.43;;;47.73;;
9188;SDS011;34313;50.780;6.084;2023-03-03T13:29:13;127.23;;;46.40;;
9188;SDS011;34313;50.780;6.084;2023-03-03T13:31:47;124.73;;;45.40;;
9188;SDS011;34313;50.780;6.084;2023-03-03T13:42:39;114.20;;;46.57;;
9188;SDS011;34313;50.780;6.084;2023-03-03T13:45:16;123.33;;;47.20;;
9188;SDS011;34313;50.780;6.084;2023-03-03T13:50:46;118.87;;;45.47;;
9188;SDS011;34313;50.780;6.084;2023-03-03T13:58:52;128.83;;;48.20;;
9188;SDS011;34313;50.780;6.084;2023-03-03T14:06:26;131.53;;;51.30;;
9188;SDS011;34313;50.780;6.084;2023-03-03T14:09:00;136.20;;;49.80;;
9188;SDS011;34313;50.780;6.084;2023-03-03T14:11:53;138.87;;;50.20;;
9188;SDS011;34313;50.780;6.084;2023-03-03T14:22:52;142.10;;;51.10;;
9188;SDS011;34313;50.780;6.084;2023-03-03T14:25:21;138.33;;;47.10;;
9188;SDS011;34313;50.780;6.084;2023-03-03T14:35:39;129.90;;;46.53;;
9188;SDS011;34313;50.780;6.084;2023-03-03T14:38:13;129.40;;;46.20;;
9188;SDS011;34313;50.780;6.084;2023-03-03T14:40:42;123.47;;;46.90;;
9188;SDS011;34313;50.780;6.084;2023-03-03T14:48:56;112.77;;;45.73;;
9188;SDS011;34313;50.780;6.084;2023-03-03T14:51:25;111.70;;;42.80;;
9188;SDS011;34313;50.780;6.084;2023-03-03T14:53:54;106.83;;;41.20;;
9188;SDS011;34313;50.780;6.084;2023-03-03T14:58:49;105.70;;;41.10;;
9188;SDS011;34313;50.780;6.084;2023-03-03T15:03:59;103.33;;;41.90;;
9188;SDS011;34313;50.780;6.084;2023-03-03T15:09:21;95.33;;;37.00;;
9188;SDS011;34313;50.780;6.084;2023-03-03T15:11:54;109.93;;;38.80;;
9188;SDS011;34313;50.780;6.084;2023-03-03T15:14:34;98.03;;;39.30;;
9188;SDS011;34313;50.780;6.084;2023-03-03T15:17:16;93.77;;;38.07;;
9188;SDS011;34313;50.780;6.084;2023-03-03T15:28:00;88.83;;;35.10;;
9188;SDS011;34313;50.780;6.084;2023-03-03T15:30:52;69.93;;;30.10;;
9188;SDS011;34313;50.780;6.084;2023-03-03T15:33:32;78.13;;;30.60;;
9188;SDS011;34313;50.780;6.084;2023-03-03T15:44:38;68.90;;;28.03;;
9188;SDS011;34313;50.780;6.084;2023-03-03T15:49:44;69.63;;;28.10;;
9188;SDS011;34313;50.780;6.084;2023-03-03T15:55:14;69.63;;;29.70;;
9188;SDS011;34313;50.780;6.084;2023-03-03T16:03:02;67.33;;;27.20;;
9188;SDS011;34313;50.780;6.084;2023-03-03T16:05:38;60.13;;;25.90;;
9188;SDS011;34313;50.780;6.084;2023-03-03T16:08:40;62.33;;;26.80;;
9188;SDS011;34313;50.780;6.084;2023-03-03T16:42:27;55.00;;;24.93;;
9188;SDS011;34313;50.780;6.084;2023-03-03T16:55:50;52.80;;;22.57;;
9188;SDS011;34313;50.780;6.084;2023-03-03T16:58:44;66.03;;;24.20;;
9188;SDS011;34313;50.780;6.084;2023-03-03T17:01:24;57.27;;;24.13;;
9188;SDS011;34313;50.780;6.084;2023-03-03T17:06:35;50.40;;;23.03;;
9188;SDS011;34313;50.780;6.084;2023-03-03T17:17:37;59.67;;;24.23;;
9188;SDS011;34313;50.780;6.084;2023-03-03T17:20:12;55.07;;;24.00;;
9188;SDS011;34313;50.780;6.084;2023-03-03T17:25:43;53.17;;;23.67;;
9188;SDS011;34313;50.780;6.084;2023-03-03T17:28:26;52.67;;;23.20;;
9188;SDS011;34313;50.780;6.084;2023-03-03T17:44:16;62.20;;;25.57;;
9188;SDS011;34313;50.780;6.084;2023-03-03T17:47:06;65.70;;;26.20;;
9188;SDS011;34313;50.780;6.084;2023-03-03T17:49:45;61.13;;;26.67;;
9188;SDS011;34313;50.780;6.084;2023-03-03T18:22:30;79.60;;;30.23;;
9188;SDS011;34313;50.780;6.084;2023-03-03T18:25:03;79.40;;;30.97;;
9188;SDS011;34313;50.780;6.084;2023-03-03T18:27:37;71.53;;;30.10;;
9188;SDS011;34313;50.780;6.084;2023-03-03T18:37:57;78.53;;;29.93;;
9188;SDS011;34313;50.780;6.084;2023-03-03T18:40:48;76.73;;;29.60;;
9188;SDS011;34313;50.780;6.084;2023-03-03T18:46:01;66.30;;;28.93;;
9188;SDS011;34313;50.780;6.084;2023-03-03T18:48:46;74.40;;;29.03;;
9188;SDS011;34313;50.780;6.084;2023-03-03T18:59:07;68.00;;;28.40;;
9188;SDS011;34313;50.780;6.084;2023-03-03T19:09:03;75.97;;;29.87;;
9188;SDS011;34313;50.780;6.084;2023-03-03T19:14:18;73.17;;;29.60;;
9188;SDS011;34313;50.780;6.084;2023-03-03T19:22:29;79.97;;;29.87;;
9188;SDS011;34313;50.780;6.084;2023-03-03T19:28:07;83.50;;;31.10;;
9188;SDS011;34313;50.780;6.084;2023-03-03T19:33:17;85.13;;;31.43;;
9188;SDS011;34313;50.780;6.084;2023-03-03T19:41:21;82.10;;;31.73;;
9188;SDS011;34313;50.780;6.084;2023-03-03T19:49:27;85.60;;;31.40;;
9188;SDS011;34313;50.780;6.084;2023-03-03T20:02:46;86.37;;;30.23;;
9188;SDS011;34313;50.780;6.084;2023-03-03T20:05:35;106.27;;;34.03;;
9188;SDS011;34313;50.780;6.084;2023-03-03T20:16:19;96.17;;;34.50;;
9188;SDS011;34313;50.780;6.084;2023-03-03T20:19:05;87.70;;;33.20;;
9188;SDS011;34313;50.780;6.084;2023-03-03T20:21:37;106.80;;;35.57;;
9188;SDS011;34313;50.780;6.084;2023-03-03T20:27:08;102.33;;;34.03;;
9188;SDS011;34313;50.780;6.084;2023-03-03T20:46:38;125.20;;;37.03;;
9188;SDS011;34313;50.780;6.084;2023-03-03T20:49:15;100.07;;;35.77;;
9188;SDS011;34313;50.780;6.084;2023-03-03T20:51:46;98.90;;;35.60;;
9188;SDS011;34313;50.780;6.084;2023-03-03T20:56:53;109.97;;;35.00;;
9188;SDS011;34313;50.780;6.084;2023-03-03T21:02:06;94.90;;;34.47;;
9188;SDS011;34313;50.780;6.084;2023-03-03T21:04:35;82.43;;;34.40;;
9188;SDS011;34313;50.780;6.084;2023-03-03T21:07:02;100.97;;;35.13;;
9188;SDS011;34313;50.780;6.084;2023-03-03T21:09:33;94.17;;;34.60;;
9188;SDS011;34313;50.780;6.084;2023-03-03T21:12:01;94.90;;;36.57;;
9188;SDS011;34313;50.780;6.084;2023-03-03T21:14:57;95.07;;;33.87;;
9188;SDS011;34313;50.780;6.084;2023-03-03T21:17:28;96.30;;;35.30;;
9188;SDS011;34313;50.780;6.084;2023-03-03T21:19:54;84.93;;;34.70;;
9188;SDS011;34313;50.780;6.084;2023-03-03T21:22:20;94.43;;;35.20;;
9188;SDS011;34313;50.780;6.084;2023-03-03T21:24:50;86.47;;;34.67;;
9188;SDS011;34313;50.780;6.084;2023-03-03T21:27:28;84.40;;;34.93;;
9188;SDS011;34313;50.780;6.084;2023-03-03T21:30:02;91.60;;;33.83;;
9188;SDS011;34313;50.780;6.084;2023-03-03T21:33:01;88.60;;;33.33;;
9188;SDS011;34313;50.780;6.084;2023-03-03T21:35:20;86.17;;;34.70;;
9188;SDS011;34313;50.780;6.084;2023-03-03T21:37:50;90.90;;;34.73;;
9188;SDS011;34313;50.780;6.084;2023-03-03T21:40:24;93.47;;;33.93;;
9188;SDS011;34313;50.780;6.084;2023-03-03T21:42:52;101.80;;;38.10;;
9188;SDS011;34313;50.780;6.084;2023-03-03T21:45:19;92.27;;;35.63;;
9188;SDS011;34313;50.780;6.084;2023-03-03T21:47:46;82.27;;;34.90;;
9188;SDS011;34313;50.780;6.084;2023-03-03T21:50:11;82.33;;;34.17;;
9188;SDS011;34313;50.780;6.084;2023-03-03T21:52:37;79.17;;;31.67;;
9188;SDS011;34313;50.780;6.084;2023-03-03T21:55:03;76.07;;;32.60;;
9188;SDS011;34313;50.780;6.084;2023-03-03T21:57:29;78.60;;;32.10;;
9188;SDS011;34313;50.780;6.084;2023-03-03T21:59:54;72.53;;;30.53;;
9188;SDS011;34313;50.780;6.084;2023-03-03T22:02:20;74.10;;;30.73;;
9188;SDS011;34313;50.780;6.084;2023-03-03T22:04:45;82.70;;;31.67;;
9188;SDS011;34313;50.780;6.084;2023-03-03T22:07:11;72.50;;;31.30;;
9188;SDS011;34313;50.780;6.084;2023-03-03T22:09:36;70.80;;;29.50;;
9188;SDS011;34313;50.780;6.084;2023-03-03T22:12:02;66.57;;;29.70;;
9188;SDS011;34313;50.780;6.084;2023-03-03T22:14:28;64.90;;;28.97;;
9188;SDS011;34313;50.780;6.084;2023-03-03T22:16:54;73.10;;;28.07;;
9188;SDS011;34313;50.780;6.084;2023-03-03T22:19:19;69.53;;;26.50;;